LLHA/HFA METAR and TAF weather

Enter ICAO airport designator
Station Type Date Time Source
LLHA METAR 2021/03/05 06:50 UTC NOAA

LLHA 050650Z 29005KT 250V330 9999 SCT035 17/10 Q1023


Station Type Date Time Source
LLHA Decoded METAR 2021/03/05 06:50 UTC NOAA

Sde-Haifa Haifa, Israel (LLHA) 32-48N 035-02E 8M
Mar 05, 2021 - 01:50 AM EST / 2021.03.05 0650 UTC
Wind: from the WNW (290 degrees) at 6 MPH (5 KT) (direction variable):0
Visibility: greater than 7 mile(s):0
Sky conditions: partly cloudy
Temperature: 62 F (17 C)
Dew Point: 50 F (10 C)
Relative Humidity: 63%
Pressure (altimeter): 30.21 in. Hg (1023 hPa)
ob: LLHA 050650Z 29005KT 250V330 9999 SCT035 17/10 Q1023
cycle: 7

Station Type Date Time Source
LLHA TAF 2021/03/05 06:00 UTC NOAA

TAF LLHA 050509Z 0506/0606 15005KT 9999 SCT030
BECMG 0507/0509 27010KT
BECMG 0515/0517 VRB03KT FEW020 TX19/0511Z TN09/0604Z

Example: see airport list